sensor_id;sensor_type;location;lat;lon;timestamp;pressure;altitude;pressure_sealevel;temperature;humidity
73633;BME280;61927;50.080;14.418;2023-06-10T00:00:13;99175.59;;;17.74;84.14
73633;BME280;61927;50.080;14.418;2023-06-10T00:03:00;99179.72;;;17.69;84.54
73633;BME280;61927;50.080;14.418;2023-06-10T00:05:26;99177.59;;;17.63;84.89
73633;BME280;61927;50.080;14.418;2023-06-10T00:07:56;99175.06;;;17.61;84.96
73633;BME280;61927;50.080;14.418;2023-06-10T00:10:23;99174.22;;;17.61;85.09
73633;BME280;61927;50.080;14.418;2023-06-10T00:12:48;99183.69;;;17.55;85.57
73633;BME280;61927;50.080;14.418;2023-06-10T00:15:14;99183.41;;;17.49;85.93
73633;BME280;61927;50.080;14.418;2023-06-10T00:17:40;99183.56;;;17.47;86.15
73633;BME280;61927;50.080;14.418;2023-06-10T00:20:08;99180.88;;;17.47;85.90
73633;BME280;61927;50.080;14.418;2023-06-10T00:22:36;99187.94;;;17.48;85.93
73633;BME280;61927;50.080;14.418;2023-06-10T00:25:04;99187.09;;;17.48;85.83
73633;BME280;61927;50.080;14.418;2023-06-10T00:27:30;99188.19;;;17.55;85.59
73633;BME280;61927;50.080;14.418;2023-06-10T00:30:04;99186.81;;;17.51;85.62
73633;BME280;61927;50.080;14.418;2023-06-10T00:32:35;99187.38;;;17.44;85.68
73633;BME280;61927;50.080;14.418;2023-06-10T00:35:02;99183.59;;;17.37;85.83
73633;BME280;61927;50.080;14.418;2023-06-10T00:37:28;99186.56;;;17.34;86.00
73633;BME280;61927;50.080;14.418;2023-06-10T00:39:55;99188.69;;;17.31;85.96
73633;BME280;61927;50.080;14.418;2023-06-10T00:42:20;99187.97;;;17.29;86.34
73633;BME280;61927;50.080;14.418;2023-06-10T00:44:48;99191.66;;;17.28;86.42
73633;BME280;61927;50.080;14.418;2023-06-10T00:47:13;99185.59;;;17.26;86.15
73633;BME280;61927;50.080;14.418;2023-06-10T00:49:39;99191.38;;;17.21;86.24
73633;BME280;61927;50.080;14.418;2023-06-10T00:52:06;99191.81;;;17.17;86.55
73633;BME280;61927;50.080;14.418;2023-06-10T00:54:32;99192.09;;;17.14;86.43
73633;BME280;61927;50.080;14.418;2023-06-10T00:57:00;99191.53;;;17.10;86.79
73633;BME280;61927;50.080;14.418;2023-06-10T00:59:28;99197.03;;;17.08;86.83
73633;BME280;61927;50.080;14.418;2023-06-10T01:01:54;99183.78;;;17.07;86.94
73633;BME280;61927;50.080;14.418;2023-06-10T01:04:21;99185.47;;;17.08;86.99
73633;BME280;61927;50.080;14.418;2023-06-10T01:07:15;99189.13;;;17.07;86.72
73633;BME280;61927;50.080;14.418;2023-06-10T01:10:06;99193.94;;;17.13;86.65
73633;BME280;61927;50.080;14.418;2023-06-10T01:12:45;99194.78;;;17.14;86.59
73633;BME280;61927;50.080;14.418;2023-06-10T01:15:17;99200.84;;;17.16;86.40
73633;BME280;61927;50.080;14.418;2023-06-10T01:20:24;99202.81;;;17.14;85.75
73633;BME280;61927;50.080;14.418;2023-06-10T01:22:53;99205.91;;;17.09;85.74
73633;BME280;61927;50.080;14.418;2023-06-10T01:25:21;99215.38;;;17.03;86.06
73633;BME280;61927;50.080;14.418;2023-06-10T01:28:03;99221.72;;;17.02;86.32
73633;BME280;61927;50.080;14.418;2023-06-10T01:30:35;99218.34;;;17.00;86.33
73633;BME280;61927;50.080;14.418;2023-06-10T01:33:04;99218.47;;;16.99;86.39
73633;BME280;61927;50.080;14.418;2023-06-10T01:35:30;99218.63;;;16.97;86.39
73633;BME280;61927;50.080;14.418;2023-06-10T01:37:58;99220.16;;;17.00;86.25
73633;BME280;61927;50.080;14.418;2023-06-10T01:40:25;99220.31;;;16.98;86.22
73633;BME280;61927;50.080;14.418;2023-06-10T01:42:51;99214.38;;;16.95;85.94
73633;BME280;61927;50.080;14.418;2023-06-10T01:45:17;99221.00;;;16.91;86.30
73633;BME280;61927;50.080;14.418;2023-06-10T01:47:43;99219.19;;;16.91;86.44
73633;BME280;61927;50.080;14.418;2023-06-10T01:50:09;99221.44;;;16.86;86.32
73633;BME280;61927;50.080;14.418;2023-06-10T01:52:34;99228.19;;;16.81;86.50
73633;BME280;61927;50.080;14.418;2023-06-10T01:55:00;99236.66;;;16.76;86.63
73633;BME280;61927;50.080;14.418;2023-06-10T01:57:26;99238.50;;;16.75;87.02
73633;BME280;61927;50.080;14.418;2023-06-10T01:59:51;99237.94;;;16.72;86.81
73633;BME280;61927;50.080;14.418;2023-06-10T02:02:17;99248.50;;;16.73;86.76
73633;BME280;61927;50.080;14.418;2023-06-10T02:04:42;99233.56;;;16.71;86.84
73633;BME280;61927;50.080;14.418;2023-06-10T02:07:08;99238.47;;;16.66;87.20
73633;BME280;61927;50.080;14.418;2023-06-10T02:09:34;99239.00;;;16.60;87.00
73633;BME280;61927;50.080;14.418;2023-06-10T02:12:03;99246.75;;;16.53;87.37
73633;BME280;61927;50.080;14.418;2023-06-10T02:14:29;99242.50;;;16.51;87.41
73633;BME280;61927;50.080;14.418;2023-06-10T02:16:55;99240.66;;;16.51;87.42
73633;BME280;61927;50.080;14.418;2023-06-10T02:19:22;99236.72;;;16.45;87.54
73633;BME280;61927;50.080;14.418;2023-06-10T02:21:47;99240.91;;;16.38;87.70
73633;BME280;61927;50.080;14.418;2023-06-10T02:24:13;99235.00;;;16.35;88.04
73633;BME280;61927;50.080;14.418;2023-06-10T02:26:38;99240.47;;;16.33;88.24
73633;BME280;61927;50.080;14.418;2023-06-10T02:29:05;99249.66;;;16.40;88.11
73633;BME280;61927;50.080;14.418;2023-06-10T02:31:31;99255.44;;;16.36;88.08
73633;BME280;61927;50.080;14.418;2023-06-10T02:33:56;99256.09;;;16.28;88.23
73633;BME280;61927;50.080;14.418;2023-06-10T02:36:22;99248.63;;;16.22;88.53
73633;BME280;61927;50.080;14.418;2023-06-10T02:38:49;99255.22;;;16.18;88.72
73633;BME280;61927;50.080;14.418;2023-06-10T02:41:15;99247.47;;;16.15;89.12
73633;BME280;61927;50.080;14.418;2023-06-10T02:43:41;99250.72;;;16.19;89.01
73633;BME280;61927;50.080;14.418;2023-06-10T02:46:06;99255.53;;;16.25;88.75
73633;BME280;61927;50.080;14.418;2023-06-10T02:48:40;99249.06;;;16.27;88.63
73633;BME280;61927;50.080;14.418;2023-06-10T02:51:06;99252.72;;;16.26;88.51
73633;BME280;61927;50.080;14.418;2023-06-10T02:53:31;99251.03;;;16.25;88.66
73633;BME280;61927;50.080;14.418;2023-06-10T02:55:57;99250.03;;;16.26;88.65
73633;BME280;61927;50.080;14.418;2023-06-10T02:58:22;99244.69;;;16.26;88.51
73633;BME280;61927;50.080;14.418;2023-06-10T03:00:48;99249.34;;;16.24;88.39
73633;BME280;61927;50.080;14.418;2023-06-10T03:03:14;99246.78;;;16.23;88.62
73633;BME280;61927;50.080;14.418;2023-06-10T03:05:39;99244.41;;;16.29;88.30
73633;BME280;61927;50.080;14.418;2023-06-10T03:08:05;99253.03;;;16.33;88.10
73633;BME280;61927;50.080;14.418;2023-06-10T03:10:31;99252.31;;;16.31;88.07
73633;BME280;61927;50.080;14.418;2023-06-10T03:12:58;99256.97;;;16.29;87.96
73633;BME280;61927;50.080;14.418;2023-06-10T03:15:24;99258.34;;;16.23;88.13
73633;BME280;61927;50.080;14.418;2023-06-10T03:17:50;99258.34;;;16.23;87.79
73633;BME280;61927;50.080;14.418;2023-06-10T03:20:15;99256.78;;;16.21;87.92
73633;BME280;61927;50.080;14.418;2023-06-10T03:22:42;99257.31;;;16.14;88.32
73633;BME280;61927;50.080;14.418;2023-06-10T03:25:08;99264.63;;;16.12;88.29
73633;BME280;61927;50.080;14.418;2023-06-10T03:27:41;99265.19;;;16.06;88.47
73633;BME280;61927;50.080;14.418;2023-06-10T03:30:07;99259.25;;;16.03;88.50
73633;BME280;61927;50.080;14.418;2023-06-10T03:32:32;99270.53;;;16.06;88.53
73633;BME280;61927;50.080;14.418;2023-06-10T03:34:58;99270.09;;;16.01;88.21
73633;BME280;61927;50.080;14.418;2023-06-10T03:37:24;99264.00;;;15.99;88.39
73633;BME280;61927;50.080;14.418;2023-06-10T03:39:50;99260.34;;;16.00;88.51
73633;BME280;61927;50.080;14.418;2023-06-10T03:42:16;99263.75;;;16.02;88.34
73633;BME280;61927;50.080;14.418;2023-06-10T03:44:41;99264.88;;;16.00;88.18
73633;BME280;61927;50.080;14.418;2023-06-10T03:47:07;99262.19;;;16.00;88.58
73633;BME280;61927;50.080;14.418;2023-06-10T03:49:32;99268.13;;;16.03;88.03
73633;BME280;61927;50.080;14.418;2023-06-10T03:51:58;99271.38;;;16.07;87.73
73633;BME280;61927;50.080;14.418;2023-06-10T03:54:24;99270.13;;;16.11;87.32
73633;BME280;61927;50.080;14.418;2023-06-10T03:56:50;99269.31;;;16.20;86.79
73633;BME280;61927;50.080;14.418;2023-06-10T03:59:16;99273.16;;;16.27;86.62
73633;BME280;61927;50.080;14.418;2023-06-10T04:01:42;99268.06;;;16.24;86.45
73633;BME280;61927;50.080;14.418;2023-06-10T04:04:09;99269.91;;;16.24;86.29
73633;BME280;61927;50.080;14.418;2023-06-10T04:06:35;99277.53;;;16.28;85.83
73633;BME280;61927;50.080;14.418;2023-06-10T04:09:02;99277.94;;;16.24;85.86
73633;BME280;61927;50.080;14.418;2023-06-10T04:11:28;99284.28;;;16.23;85.92
73633;BME280;61927;50.080;14.418;2023-06-10T04:13:54;99285.69;;;16.27;85.71
73633;BME280;61927;50.080;14.418;2023-06-10T04:16:20;99281.91;;;16.29;85.80
73633;BME280;61927;50.080;14.418;2023-06-10T04:18:46;99283.03;;;16.27;85.51
73633;BME280;61927;50.080;14.418;2023-06-10T04:21:12;99298.50;;;16.23;85.54
73633;BME280;61927;50.080;14.418;2023-06-10T04:23:38;99287.94;;;16.22;85.57
73633;BME280;61927;50.080;14.418;2023-06-10T04:26:04;99281.16;;;16.18;85.83
73633;BME280;61927;50.080;14.418;2023-06-10T04:28:31;99288.19;;;16.19;85.67
73633;BME280;61927;50.080;14.418;2023-06-10T04:30:56;99283.41;;;16.22;85.74
73633;BME280;61927;50.080;14.418;2023-06-10T04:33:23;99297.53;;;16.24;85.59
73633;BME280;61927;50.080;14.418;2023-06-10T04:35:49;99301.03;;;16.25;85.45
73633;BME280;61927;50.080;14.418;2023-06-10T04:38:15;99298.94;;;16.28;85.34
73633;BME280;61927;50.080;14.418;2023-06-10T04:40:41;99293.50;;;16.39;84.92
73633;BME280;61927;50.080;14.418;2023-06-10T04:43:06;99289.28;;;16.46;84.57
73633;BME280;61927;50.080;14.418;2023-06-10T04:45:32;99299.59;;;16.51;84.27
73633;BME280;61927;50.080;14.418;2023-06-10T04:47:58;99305.25;;;16.58;84.02
73633;BME280;61927;50.080;14.418;2023-06-10T04:50:24;99302.63;;;16.67;83.89
73633;BME280;61927;50.080;14.418;2023-06-10T04:52:49;99303.25;;;16.81;82.94
73633;BME280;61927;50.080;14.418;2023-06-10T04:55:15;99296.06;;;16.91;82.79
73633;BME280;61927;50.080;14.418;2023-06-10T04:57:41;99303.97;;;17.02;82.12
73633;BME280;61927;50.080;14.418;2023-06-10T05:00:07;99306.81;;;17.10;81.95
73633;BME280;61927;50.080;14.418;2023-06-10T05:02:34;99300.59;;;17.19;81.42
73633;BME280;61927;50.080;14.418;2023-06-10T05:04:59;99296.50;;;17.25;81.01
73633;BME280;61927;50.080;14.418;2023-06-10T05:07:25;99305.84;;;17.40;80.51
73633;BME280;61927;50.080;14.418;2023-06-10T05:09:51;99304.28;;;17.28;80.71
73633;BME280;61927;50.080;14.418;2023-06-10T05:12:16;99308.50;;;17.30;80.83
73633;BME280;61927;50.080;14.418;2023-06-10T05:14:42;99303.72;;;17.34;81.12
73633;BME280;61927;50.080;14.418;2023-06-10T05:17:08;99299.91;;;17.46;80.73
73633;BME280;61927;50.080;14.418;2023-06-10T05:19:33;99304.56;;;17.54;80.64
73633;BME280;61927;50.080;14.418;2023-06-10T05:22:01;99307.38;;;17.52;80.05
73633;BME280;61927;50.080;14.418;2023-06-10T05:24:28;99310.50;;;17.48;80.29
73633;BME280;61927;50.080;14.418;2023-06-10T05:26:53;99304.41;;;17.46;80.74
73633;BME280;61927;50.080;14.418;2023-06-10T05:29:19;99308.09;;;17.44;80.27
73633;BME280;61927;50.080;14.418;2023-06-10T05:31:45;99315.16;;;17.36;80.46
73633;BME280;61927;50.080;14.418;2023-06-10T05:34:10;99315.44;;;17.33;80.58
73633;BME280;61927;50.080;14.418;2023-06-10T05:36:36;99306.41;;;17.34;80.63
73633;BME280;61927;50.080;14.418;2023-06-10T05:39:02;99321.09;;;17.39;80.31
73633;BME280;61927;50.080;14.418;2023-06-10T05:41:28;99315.56;;;17.41;79.68
73633;BME280;61927;50.080;14.418;2023-06-10T05:43:54;99324.59;;;17.40;79.52
73633;BME280;61927;50.080;14.418;2023-06-10T05:46:20;99319.09;;;17.41;79.22
73633;BME280;61927;50.080;14.418;2023-06-10T05:48:46;99309.94;;;17.44;78.47
73633;BME280;61927;50.080;14.418;2023-06-10T05:51:11;99311.19;;;17.50;78.46
73633;BME280;61927;50.080;14.418;2023-06-10T05:53:37;99322.19;;;17.56;78.04
73633;BME280;61927;50.080;14.418;2023-06-10T05:56:03;99327.72;;;17.64;78.18
73633;BME280;61927;50.080;14.418;2023-06-10T05:58:29;99325.19;;;17.72;76.88
73633;BME280;61927;50.080;14.418;2023-06-10T06:00:55;99319.09;;;17.80;76.83
73633;BME280;61927;50.080;14.418;2023-06-10T06:03:20;99324.88;;;17.95;75.94
73633;BME280;61927;50.080;14.418;2023-06-10T06:05:46;99323.56;;;18.08;75.06
73633;BME280;61927;50.080;14.418;2023-06-10T06:08:12;99317.03;;;18.21;74.86
73633;BME280;61927;50.080;14.418;2023-06-10T06:10:39;99319.94;;;18.37;73.79
73633;BME280;61927;50.080;14.418;2023-06-10T06:13:04;99319.91;;;18.47;73.60
73633;BME280;61927;50.080;14.418;2023-06-10T06:15:30;99314.47;;;18.56;73.14
73633;BME280;61927;50.080;14.418;2023-06-10T06:17:56;99322.38;;;18.67;73.03
73633;BME280;61927;50.080;14.418;2023-06-10T06:20:22;99321.47;;;18.77;72.48
73633;BME280;61927;50.080;14.418;2023-06-10T06:22:48;99317.53;;;18.98;71.85
73633;BME280;61927;50.080;14.418;2023-06-10T06:25:14;99318.16;;;19.10;71.81
73633;BME280;61927;50.080;14.418;2023-06-10T06:27:40;99325.69;;;19.24;70.83
73633;BME280;61927;50.080;14.418;2023-06-10T06:30:06;99331.53;;;19.38;69.91
73633;BME280;61927;50.080;14.418;2023-06-10T06:32:32;99327.34;;;19.53;69.60
73633;BME280;61927;50.080;14.418;2023-06-10T06:34:58;99325.78;;;19.68;68.84
73633;BME280;61927;50.080;14.418;2023-06-10T06:37:24;99330.00;;;19.88;68.10
73633;BME280;61927;50.080;14.418;2023-06-10T06:39:51;99323.81;;;19.96;67.54
73633;BME280;61927;50.080;14.418;2023-06-10T06:42:17;99327.41;;;20.05;67.12
73633;BME280;61927;50.080;14.418;2023-06-10T06:44:42;99326.94;;;20.09;66.98
73633;BME280;61927;50.080;14.418;2023-06-10T06:47:08;99324.28;;;20.17;66.63
73633;BME280;61927;50.080;14.418;2023-06-10T06:49:33;99329.72;;;20.25;66.04
73633;BME280;61927;50.080;14.418;2023-06-10T06:51:59;99331.78;;;20.31;66.09
73633;BME280;61927;50.080;14.418;2023-06-10T06:54:25;99329.19;;;20.40;65.34
73633;BME280;61927;50.080;14.418;2023-06-10T06:56:50;99345.72;;;20.45;65.61
73633;BME280;61927;50.080;14.418;2023-06-10T06:59:16;99342.06;;;20.54;64.57
73633;BME280;61927;50.080;14.418;2023-06-10T07:01:45;99334.34;;;20.67;64.06
73633;BME280;61927;50.080;14.418;2023-06-10T07:04:11;99338.81;;;20.84;63.93
73633;BME280;61927;50.080;14.418;2023-06-10T07:06:36;99340.38;;;20.95;63.50
73633;BME280;61927;50.080;14.418;2023-06-10T07:09:04;99337.53;;;21.05;63.01
73633;BME280;61927;50.080;14.418;2023-06-10T07:11:30;99348.50;;;21.03;62.84
73633;BME280;61927;50.080;14.418;2023-06-10T07:13:56;99341.75;;;21.07;62.94
73633;BME280;61927;50.080;14.418;2023-06-10T07:16:22;99346.78;;;21.02;62.61
73633;BME280;61927;50.080;14.418;2023-06-10T07:18:47;99350.47;;;20.93;63.04
73633;BME280;61927;50.080;14.418;2023-06-10T07:21:13;99355.56;;;21.04;63.27
73633;BME280;61927;50.080;14.418;2023-06-10T07:23:42;99367.59;;;21.18;62.91
73633;BME280;61927;50.080;14.418;2023-06-10T07:26:08;99356.16;;;21.24;62.04
73633;BME280;61927;50.080;14.418;2023-06-10T07:28:37;99359.56;;;21.34;61.74
73633;BME280;61927;50.080;14.418;2023-06-10T07:31:03;99344.72;;;21.30;61.70
73633;BME280;61927;50.080;14.418;2023-06-10T07:33:28;99359.06;;;21.31;61.46
73633;BME280;61927;50.080;14.418;2023-06-10T07:35:54;99352.81;;;21.30;61.45
73633;BME280;61927;50.080;14.418;2023-06-10T07:38:20;99358.19;;;21.30;61.55
73633;BME280;61927;50.080;14.418;2023-06-10T07:40:46;99357.69;;;21.26;61.75
73633;BME280;61927;50.080;14.418;2023-06-10T07:43:12;99361.06;;;21.28;62.36
73633;BME280;61927;50.080;14.418;2023-06-10T07:45:39;99360.75;;;21.32;61.69
73633;BME280;61927;50.080;14.418;2023-06-10T07:48:05;99360.06;;;21.30;61.86
73633;BME280;61927;50.080;14.418;2023-06-10T07:50:31;99362.09;;;21.36;61.21
73633;BME280;61927;50.080;14.418;2023-06-10T07:52:56;99364.28;;;21.40;61.92
73633;BME280;61927;50.080;14.418;2023-06-10T07:55:22;99361.44;;;21.42;62.12
73633;BME280;61927;50.080;14.418;2023-06-10T07:57:47;99362.44;;;21.41;61.46
73633;BME280;61927;50.080;14.418;2023-06-10T08:00:14;99368.16;;;21.38;61.08
73633;BME280;61927;50.080;14.418;2023-06-10T08:02:39;99361.41;;;21.34;61.74
73633;BME280;61927;50.080;14.418;2023-06-10T08:05:06;99375.44;;;21.37;61.83
73633;BME280;61927;50.080;14.418;2023-06-10T08:07:31;99366.84;;;21.42;61.76
73633;BME280;61927;50.080;14.418;2023-06-10T08:09:57;99371.88;;;21.37;61.80
73633;BME280;61927;50.080;14.418;2023-06-10T08:12:23;99378.97;;;21.38;62.13
73633;BME280;61927;50.080;14.418;2023-06-10T08:14:49;99376.28;;;21.38;62.04
73633;BME280;61927;50.080;14.418;2023-06-10T08:17:14;99386.91;;;21.39;62.10
73633;BME280;61927;50.080;14.418;2023-06-10T08:19:40;99380.66;;;21.39;62.29
73633;BME280;61927;50.080;14.418;2023-06-10T08:22:05;99385.06;;;21.48;62.09
73633;BME280;61927;50.080;14.418;2023-06-10T08:24:31;99383.38;;;21.55;61.92
73633;BME280;61927;50.080;14.418;2023-06-10T08:26:56;99388.13;;;21.61;61.83
73633;BME280;61927;50.080;14.418;2023-06-10T08:29:23;99388.63;;;21.65;61.97
73633;BME280;61927;50.080;14.418;2023-06-10T08:31:48;99390.50;;;21.64;61.13
73633;BME280;61927;50.080;14.418;2023-06-10T08:34:14;99394.53;;;21.60;61.62
73633;BME280;61927;50.080;14.418;2023-06-10T08:36:40;99393.84;;;21.58;60.87
73633;BME280;61927;50.080;14.418;2023-06-10T08:39:06;99388.44;;;21.50;61.36
73633;BME280;61927;50.080;14.418;2023-06-10T08:41:35;99391.81;;;21.52;61.41
73633;BME280;61927;50.080;14.418;2023-06-10T08:44:26;99392.19;;;21.65;61.04
73633;BME280;61927;50.080;14.418;2023-06-10T08:46:55;99395.56;;;21.75;60.54
73633;BME280;61927;50.080;14.418;2023-06-10T08:49:26;99401.13;;;21.74;60.20
73633;BME280;61927;50.080;14.418;2023-06-10T08:51:55;99397.75;;;21.64;61.17
73633;BME280;61927;50.080;14.418;2023-06-10T08:54:27;99390.84;;;21.69;60.93
73633;BME280;61927;50.080;14.418;2023-06-10T08:56:55;99394.19;;;21.63;61.27
73633;BME280;61927;50.080;14.418;2023-06-10T08:59:23;99392.50;;;21.62;60.96
73633;BME280;61927;50.080;14.418;2023-06-10T09:01:50;99392.69;;;21.69;61.26
73633;BME280;61927;50.080;14.418;2023-06-10T09:04:18;99394.56;;;21.76;61.52
73633;BME280;61927;50.080;14.418;2023-06-10T09:06:44;99387.94;;;21.54;61.31
73633;BME280;61927;50.080;14.418;2023-06-10T09:09:11;99391.47;;;21.39;63.12
73633;BME280;61927;50.080;14.418;2023-06-10T09:11:38;99397.69;;;21.31;63.87
73633;BME280;61927;50.080;14.418;2023-06-10T09:14:04;99397.50;;;21.33;64.38
73633;BME280;61927;50.080;14.418;2023-06-10T09:16:29;99386.03;;;21.31;64.21
73633;BME280;61927;50.080;14.418;2023-06-10T09:18:55;99399.84;;;21.27;64.34
73633;BME280;61927;50.080;14.418;2023-06-10T09:21:24;99393.44;;;21.28;64.09
73633;BME280;61927;50.080;14.418;2023-06-10T09:23:51;99392.31;;;21.39;63.63
73633;BME280;61927;50.080;14.418;2023-06-10T09:26:17;99398.41;;;21.49;62.84
73633;BME280;61927;50.080;14.418;2023-06-10T09:28:49;99397.56;;;21.49;62.22
73633;BME280;61927;50.080;14.418;2023-06-10T09:31:17;99399.91;;;21.52;62.67
73633;BME280;61927;50.080;14.418;2023-06-10T09:33:47;99396.56;;;21.58;62.69
73633;BME280;61927;50.080;14.418;2023-06-10T09:36:21;99399.59;;;21.63;62.12
73633;BME280;61927;50.080;14.418;2023-06-10T09:38:49;99399.94;;;21.60;61.13
73633;BME280;61927;50.080;14.418;2023-06-10T09:41:16;99405.16;;;21.53;61.40
73633;BME280;61927;50.080;14.418;2023-06-10T09:43:43;99401.94;;;21.50;61.73
73633;BME280;61927;50.080;14.418;2023-06-10T09:46:16;99407.00;;;21.53;62.53
73633;BME280;61927;50.080;14.418;2023-06-10T09:48:43;99407.00;;;21.53;62.77
73633;BME280;61927;50.080;14.418;2023-06-10T09:51:09;99410.03;;;21.50;62.65
73633;BME280;61927;50.080;14.418;2023-06-10T09:53:36;99400.09;;;21.58;62.22
73633;BME280;61927;50.080;14.418;2023-06-10T09:56:02;99409.72;;;21.61;62.71
73633;BME280;61927;50.080;14.418;2023-06-10T09:58:35;99405.84;;;21.64;63.08
73633;BME280;61927;50.080;14.418;2023-06-10T10:01:14;99406.84;;;21.63;63.88
73633;BME280;61927;50.080;14.418;2023-06-10T10:03:50;99409.91;;;21.68;63.88
73633;BME280;61927;50.080;14.418;2023-06-10T10:06:17;99411.94;;;21.66;62.56
73633;BME280;61927;50.080;14.418;2023-06-10T10:08:45;99403.16;;;21.72;62.41
73633;BME280;61927;50.080;14.418;2023-06-10T10:11:10;99399.78;;;21.78;62.53
73633;BME280;61927;50.080;14.418;2023-06-10T10:13:37;99404.66;;;21.58;61.82
73633;BME280;61927;50.080;14.418;2023-06-10T10:16:09;99398.91;;;21.53;62.33
73633;BME280;61927;50.080;14.418;2023-06-10T10:18:39;99401.97;;;21.58;61.33
73633;BME280;61927;50.080;14.418;2023-06-10T10:21:13;99400.47;;;21.72;60.61
73633;BME280;61927;50.080;14.418;2023-06-10T10:23:53;99397.09;;;21.94;60.23
73633;BME280;61927;50.080;14.418;2023-06-10T10:26:21;99389.88;;;22.11;59.98
73633;BME280;61927;50.080;14.418;2023-06-10T10:29:05;99396.78;;;22.30;59.09
73633;BME280;61927;50.080;14.418;2023-06-10T10:31:34;99388.31;;;22.41;58.57
73633;BME280;61927;50.080;14.418;2023-06-10T10:34:06;99383.25;;;22.38;59.20
73633;BME280;61927;50.080;14.418;2023-06-10T10:36:32;99388.28;;;22.57;59.35
73633;BME280;61927;50.080;14.418;2023-06-10T10:38:59;99378.91;;;22.76;57.94
73633;BME280;61927;50.080;14.418;2023-06-10T10:41:28;99381.97;;;22.81;58.25
73633;BME280;61927;50.080;14.418;2023-06-10T10:43:54;99376.81;;;23.02;57.56
73633;BME280;61927;50.080;14.418;2023-06-10T10:46:20;99378.19;;;22.98;55.64
73633;BME280;61927;50.080;14.418;2023-06-10T10:48:52;99379.91;;;22.91;55.94
73633;BME280;61927;50.080;14.418;2023-06-10T10:51:22;99377.81;;;23.01;54.33
73633;BME280;61927;50.080;14.418;2023-06-10T10:54:13;99378.47;;;23.11;54.27
73633;BME280;61927;50.080;14.418;2023-06-10T10:56:39;99380.16;;;23.12;54.50
73633;BME280;61927;50.080;14.418;2023-06-10T10:59:05;99373.28;;;22.94;54.89
73633;BME280;61927;50.080;14.418;2023-06-10T11:01:41;99371.66;;;22.84;55.11
73633;BME280;61927;50.080;14.418;2023-06-10T11:04:08;99369.59;;;22.78;56.09
73633;BME280;61927;50.080;14.418;2023-06-10T11:06:34;99358.97;;;22.85;56.09
73633;BME280;61927;50.080;14.418;2023-06-10T11:09:00;99362.78;;;22.99;55.96
73633;BME280;61927;50.080;14.418;2023-06-10T11:11:49;99361.69;;;23.16;56.02
73633;BME280;61927;50.080;14.418;2023-06-10T11:14:26;99358.88;;;23.32;54.96
73633;BME280;61927;50.080;14.418;2023-06-10T11:16:56;99351.97;;;23.52;54.55
73633;BME280;61927;50.080;14.418;2023-06-10T11:19:33;99343.59;;;23.70;53.95
73633;BME280;61927;50.080;14.418;2023-06-10T11:22:02;99342.66;;;24.01;53.11
73633;BME280;61927;50.080;14.418;2023-06-10T11:24:29;99342.84;;;23.99;52.12
73633;BME280;61927;50.080;14.418;2023-06-10T11:27:14;99335.88;;;23.82;53.17
73633;BME280;61927;50.080;14.418;2023-06-10T11:29:57;99341.94;;;23.84;52.58
73633;BME280;61927;50.080;14.418;2023-06-10T11:32:31;99345.28;;;23.71;53.15
73633;BME280;61927;50.080;14.418;2023-06-10T11:34:57;99357.00;;;23.64;53.57
73633;BME280;61927;50.080;14.418;2023-06-10T11:37:23;99348.41;;;23.60;54.05
73633;BME280;61927;50.080;14.418;2023-06-10T11:39:53;99349.38;;;23.67;53.92
73633;BME280;61927;50.080;14.418;2023-06-10T11:42:19;99349.53;;;23.66;54.46
73633;BME280;61927;50.080;14.418;2023-06-10T11:44:50;99339.84;;;23.71;54.08
73633;BME280;61927;50.080;14.418;2023-06-10T11:47:17;99340.22;;;23.68;54.08
73633;BME280;61927;50.080;14.418;2023-06-10T11:49:43;99337.63;;;23.75;54.44
73633;BME280;61927;50.080;14.418;2023-06-10T11:52:09;99335.94;;;23.74;53.77
73633;BME280;61927;50.080;14.418;2023-06-10T11:54:37;99329.72;;;23.88;53.92
73633;BME280;61927;50.080;14.418;2023-06-10T11:57:03;99320.09;;;23.86;54.03
73633;BME280;61927;50.080;14.418;2023-06-10T11:59:32;99328.47;;;23.76;53.83
73633;BME280;61927;50.080;14.418;2023-06-10T12:01:58;99324.63;;;23.70;54.65
73633;BME280;61927;50.080;14.418;2023-06-10T12:04:24;99323.41;;;23.73;53.57
73633;BME280;61927;50.080;14.418;2023-06-10T12:06:52;99319.53;;;23.90;52.85
73633;BME280;61927;50.080;14.418;2023-06-10T12:09:20;99313.78;;;24.08;51.86
73633;BME280;61927;50.080;14.418;2023-06-10T12:11:52;99310.97;;;24.16;51.44
73633;BME280;61927;50.080;14.418;2023-06-10T12:20:00;99322.22;;;23.75;53.07
73633;BME280;61927;50.080;14.418;2023-06-10T12:22:26;99317.09;;;23.80;52.70
73633;BME280;61927;50.080;14.418;2023-06-10T12:25:00;99320.09;;;23.86;52.41
73633;BME280;61927;50.080;14.418;2023-06-10T12:27:27;99311.88;;;23.94;51.03
73633;BME280;61927;50.080;14.418;2023-06-10T12:29:56;99307.78;;;23.98;51.00
73633;BME280;61927;50.080;14.418;2023-06-10T12:32:55;99301.16;;;24.00;50.18
73633;BME280;61927;50.080;14.418;2023-06-10T12:35:23;99303.66;;;24.02;50.42
73633;BME280;61927;50.080;14.418;2023-06-10T12:38:01;99302.94;;;24.08;50.41
73633;BME280;61927;50.080;14.418;2023-06-10T12:40:28;99290.22;;;24.08;49.50
73633;BME280;61927;50.080;14.418;2023-06-10T12:42:55;99289.56;;;24.06;49.99
73633;BME280;61927;50.080;14.418;2023-06-10T12:45:34;99280.22;;;24.09;48.97
73633;BME280;61927;50.080;14.418;2023-06-10T12:48:31;99284.91;;;24.15;49.20
73633;BME280;61927;50.080;14.418;2023-06-10T12:50:58;99286.91;;;24.36;48.50
73633;BME280;61927;50.080;14.418;2023-06-10T12:53:24;99270.25;;;24.54;48.95
73633;BME280;61927;50.080;14.418;2023-06-10T12:55:52;99267.97;;;24.72;47.15
73633;BME280;61927;50.080;14.418;2023-06-10T12:58:21;99255.59;;;24.84;46.96
73633;BME280;61927;50.080;14.418;2023-06-10T13:00:47;99263.53;;;25.00;47.58